EDT,Max TemperatureF,Mean TemperatureF,Min TemperatureF,Max Dew PointF,MeanDew PointF,Min DewpointF,Max Humidity, Mean Humidity, Min Humidity, Max Sea Level PressureIn, Mean Sea Level PressureIn, Min Sea Level PressureIn, Max VisibilityMiles, Mean VisibilityMiles, Min VisibilityMiles, Max Wind SpeedMPH, Mean Wind SpeedMPH, Max Gust SpeedMPH,PrecipitationIn, CloudCover, Events, WindDirDegrees
2014-5-1,59,55,50,54,44,34,86,65,43,29.90,29.85,29.82,10,10,10,17,8,24,0.04,8,,249
2014-5-2,56,51,45,42,39,34,77,64,51,29.90,29.87,29.85,10,10,10,16,8,22,0.00,7,,241
2014-5-3,67,56,45,46,39,33,86,59,31,29.89,29.84,29.76,10,10,10,24,9,37,0.01,6,Rain,230
2014-5-4,67,57,46,40,34,27,60,45,29,30.07,29.92,29.85,10,10,10,25,11,35,0.00,5,,276
2014-5-5,56,48,39,39,34,32,79,61,43,30.09,30.01,29.91,10,10,10,12,6,16,0.02,3,Rain,74
2014-5-6,71,56,41,39,36,31,82,53,24,30.02,29.98,29.92,10,10,10,10,5,14,0.00,0,,26
2014-5-7,85,68,50,51,44,37,64,46,28,30.05,29.98,29.93,10,10,10,16,5,23,0.00,1,,115
2014-5-8,85,70,55,59,54,50,86,60,34,30.09,30.02,29.97,10,10,10,17,7,26,0.00,0,,221
2014-5-9,82,70,58,61,57,52,87,66,45,30.02,29.94,29.86,10,10,10,25,9,35,0.02,3,Rain,202
2014-5-10,68,62,56,63,59,55,93,83,73,30.03,29.96,29.91,10,8,1,15,5,18,0.35,6,Rain,265
2014-5-11,77,65,53,62,56,51,100,79,57,30.17,30.09,30.03,10,5,0,18,6,26,0.19,5,Fog-Rain,178
2014-5-12,83,73,62,70,64,60,93,76,58,30.12,30.07,30.02,10,6,1,17,6,22,1.12,5,Rain,190
2014-5-13,87,76,64,66,63,61,93,68,42,30.07,30.04,29.99,10,8,2,18,6,22,0.01,1,,214
2014-5-14,84,74,64,66,63,61,93,72,51,30.09,29.98,29.88,10,8,1,33,7,45,0.66,4,Rain,125
2014-5-15,67,57,46,63,57,40,93,80,66,30.03,29.87,29.79,10,6,1,20,9,29,0.47,7,Rain,213
2014-5-16,60,50,39,42,38,35,92,70,47,30.04,30.00,29.95,10,10,10,15,6,21,T,4,,270
2014-5-17,54,47,39,45,41,37,100,80,59,30.25,30.13,30.04,10,7,0,18,5,28,0.23,5,Fog-Rain,214
2014-5-18,64,49,34,43,36,31,100,66,32,30.32,30.28,30.24,10,5,0,12,2,20,0.00,2,Fog,319
2014-5-19,70,54,37,42,37,32,92,59,26,30.34,30.26,30.17,10,10,9,13,2,16,0.00,0,,152
2014-5-20,75,63,51,59,50,40,90,65,40,30.20,30.07,29.97,10,10,10,22,6,32,T,5,Rain,197
2014-5-21,76,69,61,65,61,57,90,77,64,29.97,29.92,29.88,10,10,8,17,7,22,T,3,,208
2014-5-22,77,66,54,63,57,49,97,70,43,30.02,29.94,29.88,10,8,2,20,7,25,0.20,3,Rain,275
2014-5-23,70,59,47,50,46,43,93,66,39,30.14,30.08,30.00,10,10,8,16,6,23,0.00,3,,318
2014-5-24,75,60,44,51,47,41,93,66,38,30.22,30.17,30.12,10,10,10,9,2,13,0.00,0,,337
2014-5-25,79,64,48,52,48,45,93,62,30,30.20,30.15,30.10,10,10,9,9,2,12,0.00,0,,110
2014-5-26,83,67,50,61,54,47,89,64,39,30.16,30.08,29.99,10,10,10,14,4,19,0.00,1,,212
2014-5-27,86,76,66,67,64,59,93,67,40,30.02,29.96,29.89,10,8,1,17,7,25,0.19,4,Rain-Thunderstorm,228
2014-5-28,87,75,62,67,62,60,93,68,42,30.02,29.96,29.91,10,7,2,17,4,22,0.02,3,Rain-Thunderstorm,219
2014-5-29,79,70,60,64,62,49,100,77,54,30.09,30.05,30.00,10,5,1,10,3,15,0.00,5,,11
2014-5-30,80,66,52,56,52,49,89,63,37,30.19,30.14,30.09,10,8,2,14,4,17,0.00,3,,13
2014-5-31,82,67,51,56,52,48,93,63,33,30.23,30.18,30.13,10,10,7,10,3,16,0.00,0,,70